Huvudsida
METAR-TAF:

METAR-TAF

Flygplatser :

Martinique Aimé Césaires internationella flygplats

Fort-de-France, Martinique

latitud: 14-36N, longitud: 061-00W, höjd: 5 m

Aktuellt väderrapport

Denna rapport gjordes för 27 minuter sedan, klockan 08:30 UTC
Vind 13 kt från ost
Temperatur 26°C
Fuktighet 65%
Tryck 1017 hPa
Sikt 10 km eller mer
Få moln på en höjd av 3600 ft
Spridda moln på en höjd av 4600 ft
Brutna moln på en höjd av 5400 ft

METAR: TFFF 160830Z AUTO 10013KT 9999 FEW036 SCT046 BKN054 26/19 Q1017 TEMPO 11015G25KT

Tid: 04:57 (08:57 UTC)

Väderprognos

Denna rapport gjordes för 3 timmar och 57 minuter sedan, klockan 05:00 UTC
Prognos gäller från 16 kl. 06 UTC till 17 kl. 06 UTC
Vind 8 kt från ost/sydost
Sikt 10 km eller mer
Spridda moln på en höjd av 3000 ft
Sannolikhet 30% :
Temporärt
från 16 kl. 10 UTC till 16 kl. 16 UTC
Vind 15 kt från ost/sydost i byarna ända upp till 25 kt

TAF: TFFF 160500Z 1606/1706 11008KT 9999 SCT030 PROB30 TEMPO 1610/1616 11015G25KT

Aktuella väderrapporter och prognoser från 4000 flygplatser (METAR- och TAF-rapporter).

De tillgängliga stationerna syns som gula och röda prickar på kartan.

För musen över prickarna för att se namnen på stationerna.

Klicka sedan för att få väderrapporter och prognoser.

För att ändra kartan: Klicka på de gröna knapparna med ett svart kors på för att zooma in; den gröna knappen med ett streck på för att zooma ut; eller på de gröna pilarna för angränsande kartor.


METAR-TAF: